sensor_id;sensor_type;location;lat;lon;timestamp;P1;durP1;ratioP1;P2;durP2;ratioP2
10637;SDS011;47007;49.252;8.904;2023-11-22T00:00:31;1.63;;;1.25;;
10637;SDS011;47007;49.252;8.904;2023-11-22T00:01:13;1.60;;;1.40;;
10637;SDS011;47007;49.252;8.904;2023-11-22T00:01:55;2.03;;;1.60;;
10637;SDS011;47007;49.252;8.904;2023-11-22T00:02:37;1.35;;;1.20;;
10637;SDS011;47007;49.252;8.904;2023-11-22T00:03:19;1.98;;;1.38;;
10637;SDS011;47007;49.252;8.904;2023-11-22T00:04:00;1.65;;;1.30;;
10637;SDS011;47007;49.252;8.904;2023-11-22T00:04:42;1.23;;;1.10;;
10637;SDS011;47007;49.252;8.904;2023-11-22T00:05:24;2.03;;;1.30;;
10637;SDS011;47007;49.252;8.904;2023-11-22T00:06:06;1.55;;;1.45;;
10637;SDS011;47007;49.252;8.904;2023-11-22T00:06:48;1.23;;;1.13;;
10637;SDS011;47007;49.252;8.904;2023-11-22T00:07:30;2.05;;;1.40;;
10637;SDS011;47007;49.252;8.904;2023-11-22T00:08:13;2.15;;;1.50;;
10637;SDS011;47007;49.252;8.904;2023-11-22T00:08:54;2.47;;;1.50;;
10637;SDS011;47007;49.252;8.904;2023-11-22T00:09:36;1.65;;;1.55;;
10637;SDS011;47007;49.252;8.904;2023-11-22T00:10:19;1.98;;;1.55;;
10637;SDS011;47007;49.252;8.904;2023-11-22T00:11:01;2.72;;;1.70;;
10637;SDS011;47007;49.252;8.904;2023-11-22T00:11:43;2.08;;;1.45;;
10637;SDS011;47007;49.252;8.904;2023-11-22T00:12:25;1.35;;;1.30;;
10637;SDS011;47007;49.252;8.904;2023-11-22T00:13:06;1.00;;;1.00;;
10637;SDS011;47007;49.252;8.904;2023-11-22T00:13:49;1.50;;;1.40;;
10637;SDS011;47007;49.252;8.904;2023-11-22T00:14:31;1.88;;;1.73;;
10637;SDS011;47007;49.252;8.904;2023-11-22T00:15:12;1.42;;;1.33;;
10637;SDS011;47007;49.252;8.904;2023-11-22T00:15:59;1.80;;;1.70;;
10637;SDS011;47007;49.252;8.904;2023-11-22T00:16:41;1.40;;;1.27;;
10637;SDS011;47007;49.252;8.904;2023-11-22T00:17:24;1.50;;;1.30;;
10637;SDS011;47007;49.252;8.904;2023-11-22T00:18:06;1.52;;;1.42;;
10637;SDS011;47007;49.252;8.904;2023-11-22T00:18:48;1.10;;;1.10;;
10637;SDS011;47007;49.252;8.904;2023-11-22T00:19:30;2.25;;;1.42;;
10637;SDS011;47007;49.252;8.904;2023-11-22T00:20:12;1.30;;;1.20;;
10637;SDS011;47007;49.252;8.904;2023-11-22T00:20:54;1.70;;;1.60;;
10637;SDS011;47007;49.252;8.904;2023-11-22T00:21:36;1.77;;;1.42;;
10637;SDS011;47007;49.252;8.904;2023-11-22T00:22:18;1.85;;;1.67;;
10637;SDS011;47007;49.252;8.904;2023-11-22T00:23:01;1.50;;;1.40;;
10637;SDS011;47007;49.252;8.904;2023-11-22T00:23:42;1.65;;;1.55;;
10637;SDS011;47007;49.252;8.904;2023-11-22T00:24:24;1.30;;;1.30;;
10637;SDS011;47007;49.252;8.904;2023-11-22T00:25:06;1.80;;;1.50;;
10637;SDS011;47007;49.252;8.904;2023-11-22T00:25:48;2.30;;;1.90;;
10637;SDS011;47007;49.252;8.904;2023-11-22T00:26:30;1.60;;;1.50;;
10637;SDS011;47007;49.252;8.904;2023-11-22T00:27:13;1.60;;;1.50;;
10637;SDS011;47007;49.252;8.904;2023-11-22T00:27:59;1.40;;;1.30;;
10637;SDS011;47007;49.252;8.904;2023-11-22T00:28:41;1.88;;;1.77;;
10637;SDS011;47007;49.252;8.904;2023-11-22T00:29:22;1.50;;;1.40;;
10637;SDS011;47007;49.252;8.904;2023-11-22T00:30:05;1.42;;;1.30;;
10637;SDS011;47007;49.252;8.904;2023-11-22T00:30:47;1.40;;;1.30;;
10637;SDS011;47007;49.252;8.904;2023-11-22T00:31:30;1.75;;;1.65;;
10637;SDS011;47007;49.252;8.904;2023-11-22T00:32:12;1.85;;;1.67;;
10637;SDS011;47007;49.252;8.904;2023-11-22T00:32:54;1.70;;;1.60;;
10637;SDS011;47007;49.252;8.904;2023-11-22T00:33:35;1.80;;;1.70;;
10637;SDS011;47007;49.252;8.904;2023-11-22T00:34:17;1.50;;;1.40;;
10637;SDS011;47007;49.252;8.904;2023-11-22T00:35:01;1.85;;;1.63;;
10637;SDS011;47007;49.252;8.904;2023-11-22T00:35:44;2.28;;;1.70;;
10637;SDS011;47007;49.252;8.904;2023-11-22T00:36:26;1.75;;;1.65;;
10637;SDS011;47007;49.252;8.904;2023-11-22T00:37:07;1.67;;;1.58;;
10637;SDS011;47007;49.252;8.904;2023-11-22T00:37:49;1.45;;;1.30;;
10637;SDS011;47007;49.252;8.904;2023-11-22T00:38:31;1.85;;;1.75;;
10637;SDS011;47007;49.252;8.904;2023-11-22T00:39:13;1.70;;;1.60;;
10637;SDS011;47007;49.252;8.904;2023-11-22T00:39:55;1.98;;;1.23;;
10637;SDS011;47007;49.252;8.904;2023-11-22T00:40:36;1.77;;;1.67;;
10637;SDS011;47007;49.252;8.904;2023-11-22T00:41:18;1.60;;;1.50;;
10637;SDS011;47007;49.252;8.904;2023-11-22T00:42:00;1.70;;;1.60;;
10637;SDS011;47007;49.252;8.904;2023-11-22T00:42:42;1.85;;;1.67;;
10637;SDS011;47007;49.252;8.904;2023-11-22T00:43:24;1.73;;;1.63;;
10637;SDS011;47007;49.252;8.904;2023-11-22T00:44:07;2.10;;;1.92;;
10637;SDS011;47007;49.252;8.904;2023-11-22T00:44:49;1.63;;;1.50;;
10637;SDS011;47007;49.252;8.904;2023-11-22T00:45:31;2.92;;;1.65;;
10637;SDS011;47007;49.252;8.904;2023-11-22T00:46:13;1.90;;;1.80;;
10637;SDS011;47007;49.252;8.904;2023-11-22T00:46:54;2.10;;;1.90;;
10637;SDS011;47007;49.252;8.904;2023-11-22T00:47:37;1.65;;;1.55;;
10637;SDS011;47007;49.252;8.904;2023-11-22T00:48:19;1.60;;;1.50;;
10637;SDS011;47007;49.252;8.904;2023-11-22T00:49:01;1.67;;;1.55;;
10637;SDS011;47007;49.252;8.904;2023-11-22T00:49:43;2.05;;;1.85;;
10637;SDS011;47007;49.252;8.904;2023-11-22T00:50:24;1.67;;;1.58;;
10637;SDS011;47007;49.252;8.904;2023-11-22T00:51:08;1.42;;;1.33;;
10637;SDS011;47007;49.252;8.904;2023-11-22T00:51:51;1.70;;;1.52;;
10637;SDS011;47007;49.252;8.904;2023-11-22T00:52:33;1.38;;;1.27;;
10637;SDS011;47007;49.252;8.904;2023-11-22T00:53:16;1.52;;;1.42;;
10637;SDS011;47007;49.252;8.904;2023-11-22T00:54:00;1.60;;;1.50;;
10637;SDS011;47007;49.252;8.904;2023-11-22T00:54:42;1.50;;;1.40;;
10637;SDS011;47007;49.252;8.904;2023-11-22T00:55:23;1.77;;;1.25;;
10637;SDS011;47007;49.252;8.904;2023-11-22T00:56:05;1.65;;;1.55;;
10637;SDS011;47007;49.252;8.904;2023-11-22T00:56:48;1.55;;;1.45;;
10637;SDS011;47007;49.252;8.904;2023-11-22T00:57:29;1.27;;;1.17;;
10637;SDS011;47007;49.252;8.904;2023-11-22T00:58:12;2.17;;;1.25;;
10637;SDS011;47007;49.252;8.904;2023-11-22T00:58:54;1.83;;;1.73;;
10637;SDS011;47007;49.252;8.904;2023-11-22T00:59:36;1.88;;;1.45;;
10637;SDS011;47007;49.252;8.904;2023-11-22T01:00:18;1.75;;;1.38;;
10637;SDS011;47007;49.252;8.904;2023-11-22T01:01:00;1.88;;;1.75;;
10637;SDS011;47007;49.252;8.904;2023-11-22T01:01:42;1.40;;;1.30;;
10637;SDS011;47007;49.252;8.904;2023-11-22T01:02:24;1.60;;;1.50;;
10637;SDS011;47007;49.252;8.904;2023-11-22T01:03:05;1.40;;;1.30;;
10637;SDS011;47007;49.252;8.904;2023-11-22T01:03:50;1.75;;;1.65;;
10637;SDS011;47007;49.252;8.904;2023-11-22T01:04:32;1.70;;;1.55;;
10637;SDS011;47007;49.252;8.904;2023-11-22T01:05:17;2.45;;;1.40;;
10637;SDS011;47007;49.252;8.904;2023-11-22T01:05:59;1.58;;;1.48;;
10637;SDS011;47007;49.252;8.904;2023-11-22T01:06:41;1.35;;;1.25;;
10637;SDS011;47007;49.252;8.904;2023-11-22T01:07:22;1.60;;;1.50;;
10637;SDS011;47007;49.252;8.904;2023-11-22T01:08:04;1.63;;;1.52;;
10637;SDS011;47007;49.252;8.904;2023-11-22T01:08:46;1.70;;;1.60;;
10637;SDS011;47007;49.252;8.904;2023-11-22T01:09:29;1.65;;;1.42;;
10637;SDS011;47007;49.252;8.904;2023-11-22T01:10:11;1.70;;;1.60;;
10637;SDS011;47007;49.252;8.904;2023-11-22T01:10:53;1.63;;;1.45;;
10637;SDS011;47007;49.252;8.904;2023-11-22T01:11:35;1.83;;;1.30;;
10637;SDS011;47007;49.252;8.904;2023-11-22T01:12:17;2.28;;;1.70;;
10637;SDS011;47007;49.252;8.904;2023-11-22T01:12:58;2.28;;;1.48;;
10637;SDS011;47007;49.252;8.904;2023-11-22T01:13:40;1.95;;;1.50;;
10637;SDS011;47007;49.252;8.904;2023-11-22T01:14:24;2.42;;;1.40;;
10637;SDS011;47007;49.252;8.904;2023-11-22T01:15:07;1.83;;;1.73;;
10637;SDS011;47007;49.252;8.904;2023-11-22T01:15:50;1.50;;;1.40;;
10637;SDS011;47007;49.252;8.904;2023-11-22T01:16:32;1.40;;;1.30;;
10637;SDS011;47007;49.252;8.904;2023-11-22T01:17:14;1.17;;;1.08;;
10637;SDS011;47007;49.252;8.904;2023-11-22T01:17:56;1.60;;;1.10;;
10637;SDS011;47007;49.252;8.904;2023-11-22T01:18:37;1.70;;;1.17;;
10637;SDS011;47007;49.252;8.904;2023-11-22T01:19:21;1.50;;;1.40;;
10637;SDS011;47007;49.252;8.904;2023-11-22T01:20:03;2.65;;;1.77;;
10637;SDS011;47007;49.252;8.904;2023-11-22T01:20:45;1.20;;;1.10;;
10637;SDS011;47007;49.252;8.904;2023-11-22T01:21:27;1.33;;;1.23;;
10637;SDS011;47007;49.252;8.904;2023-11-22T01:22:09;1.40;;;1.30;;
10637;SDS011;47007;49.252;8.904;2023-11-22T01:22:51;1.60;;;1.30;;
10637;SDS011;47007;49.252;8.904;2023-11-22T01:23:33;1.67;;;1.30;;
10637;SDS011;47007;49.252;8.904;2023-11-22T01:24:15;2.40;;;1.30;;
10637;SDS011;47007;49.252;8.904;2023-11-22T01:24:58;1.77;;;1.65;;
10637;SDS011;47007;49.252;8.904;2023-11-22T01:25:39;1.38;;;1.27;;
10637;SDS011;47007;49.252;8.904;2023-11-22T01:26:21;1.75;;;1.15;;
10637;SDS011;47007;49.252;8.904;2023-11-22T01:27:03;1.30;;;1.13;;
10637;SDS011;47007;49.252;8.904;2023-11-22T01:27:46;1.40;;;1.30;;
10637;SDS011;47007;49.252;8.904;2023-11-22T01:28:28;1.10;;;1.10;;
10637;SDS011;47007;49.252;8.904;2023-11-22T01:29:10;1.30;;;1.20;;
10637;SDS011;47007;49.252;8.904;2023-11-22T01:29:53;1.40;;;1.30;;
10637;SDS011;47007;49.252;8.904;2023-11-22T01:30:35;1.40;;;1.30;;
10637;SDS011;47007;49.252;8.904;2023-11-22T01:31:18;1.27;;;1.17;;
10637;SDS011;47007;49.252;8.904;2023-11-22T01:32:02;1.52;;;1.42;;
10637;SDS011;47007;49.252;8.904;2023-11-22T01:32:44;1.52;;;1.33;;
10637;SDS011;47007;49.252;8.904;2023-11-22T01:33:26;1.42;;;1.33;;
10637;SDS011;47007;49.252;8.904;2023-11-22T01:34:08;1.85;;;1.52;;
10637;SDS011;47007;49.252;8.904;2023-11-22T01:34:51;1.15;;;1.13;;
10637;SDS011;47007;49.252;8.904;2023-11-22T01:35:33;1.50;;;1.27;;
10637;SDS011;47007;49.252;8.904;2023-11-22T01:36:15;1.30;;;1.20;;
10637;SDS011;47007;49.252;8.904;2023-11-22T01:36:57;1.58;;;1.48;;
10637;SDS011;47007;49.252;8.904;2023-11-22T01:37:39;1.25;;;1.10;;
10637;SDS011;47007;49.252;8.904;2023-11-22T01:38:20;2.53;;;1.17;;
10637;SDS011;47007;49.252;8.904;2023-11-22T01:39:02;1.58;;;1.48;;
10637;SDS011;47007;49.252;8.904;2023-11-22T01:39:44;1.52;;;1.20;;
10637;SDS011;47007;49.252;8.904;2023-11-22T01:40:27;1.95;;;1.48;;
10637;SDS011;47007;49.252;8.904;2023-11-22T01:41:09;1.30;;;1.20;;
10637;SDS011;47007;49.252;8.904;2023-11-22T01:41:51;1.42;;;1.33;;
10637;SDS011;47007;49.252;8.904;2023-11-22T01:42:33;1.40;;;1.30;;
10637;SDS011;47007;49.252;8.904;2023-11-22T01:43:19;1.30;;;1.20;;
10637;SDS011;47007;49.252;8.904;2023-11-22T01:44:08;1.50;;;1.40;;
10637;SDS011;47007;49.252;8.904;2023-11-22T01:44:51;1.63;;;1.00;;
10637;SDS011;47007;49.252;8.904;2023-11-22T01:45:34;1.23;;;1.13;;
10637;SDS011;47007;49.252;8.904;2023-11-22T01:46:22;1.20;;;1.10;;
10637;SDS011;47007;49.252;8.904;2023-11-22T01:47:05;1.20;;;1.15;;
10637;SDS011;47007;49.252;8.904;2023-11-22T01:47:47;1.35;;;1.25;;
10637;SDS011;47007;49.252;8.904;2023-11-22T01:48:29;1.50;;;1.30;;
10637;SDS011;47007;49.252;8.904;2023-11-22T01:49:13;1.13;;;1.02;;
10637;SDS011;47007;49.252;8.904;2023-11-22T01:49:55;1.50;;;1.10;;
10637;SDS011;47007;49.252;8.904;2023-11-22T01:50:38;1.48;;;1.10;;
10637;SDS011;47007;49.252;8.904;2023-11-22T01:51:22;1.10;;;1.00;;
10637;SDS011;47007;49.252;8.904;2023-11-22T01:52:05;0.90;;;0.90;;
10637;SDS011;47007;49.252;8.904;2023-11-22T01:52:48;1.23;;;1.13;;
10637;SDS011;47007;49.252;8.904;2023-11-22T01:53:30;1.27;;;1.10;;
10637;SDS011;47007;49.252;8.904;2023-11-22T01:54:13;1.45;;;1.00;;
10637;SDS011;47007;49.252;8.904;2023-11-22T01:54:56;1.13;;;1.02;;
10637;SDS011;47007;49.252;8.904;2023-11-22T01:55:38;1.10;;;1.00;;
10637;SDS011;47007;49.252;8.904;2023-11-22T01:56:22;0.80;;;0.80;;
10637;SDS011;47007;49.252;8.904;2023-11-22T01:57:06;1.20;;;1.10;;
10637;SDS011;47007;49.252;8.904;2023-11-22T01:57:50;1.10;;;1.00;;
10637;SDS011;47007;49.252;8.904;2023-11-22T01:58:32;1.30;;;1.20;;
10637;SDS011;47007;49.252;8.904;2023-11-22T01:59:14;0.88;;;0.80;;
10637;SDS011;47007;49.252;8.904;2023-11-22T01:59:56;0.88;;;0.88;;
10637;SDS011;47007;49.252;8.904;2023-11-22T02:00:45;0.80;;;0.80;;
10637;SDS011;47007;49.252;8.904;2023-11-22T02:01:31;0.93;;;0.93;;
10637;SDS011;47007;49.252;8.904;2023-11-22T02:02:13;1.00;;;0.90;;
10637;SDS011;47007;49.252;8.904;2023-11-22T02:02:55;1.20;;;1.10;;
10637;SDS011;47007;49.252;8.904;2023-11-22T02:03:38;1.10;;;1.00;;
10637;SDS011;47007;49.252;8.904;2023-11-22T02:04:20;0.95;;;0.90;;
10637;SDS011;47007;49.252;8.904;2023-11-22T02:05:02;1.33;;;1.00;;
10637;SDS011;47007;49.252;8.904;2023-11-22T02:05:45;1.30;;;0.85;;
10637;SDS011;47007;49.252;8.904;2023-11-22T02:06:27;1.20;;;1.00;;
10637;SDS011;47007;49.252;8.904;2023-11-22T02:07:08;1.30;;;1.02;;
10637;SDS011;47007;49.252;8.904;2023-11-22T02:07:51;1.05;;;1.00;;
10637;SDS011;47007;49.252;8.904;2023-11-22T02:08:33;1.38;;;1.27;;
10637;SDS011;47007;49.252;8.904;2023-11-22T02:09:15;1.23;;;0.90;;
10637;SDS011;47007;49.252;8.904;2023-11-22T02:09:59;2.72;;;0.90;;
10637;SDS011;47007;49.252;8.904;2023-11-22T02:10:42;1.67;;;0.90;;
10637;SDS011;47007;49.252;8.904;2023-11-22T02:11:25;1.08;;;0.82;;
10637;SDS011;47007;49.252;8.904;2023-11-22T02:12:09;0.80;;;0.80;;
10637;SDS011;47007;49.252;8.904;2023-11-22T02:12:51;1.33;;;1.20;;
10637;SDS011;47007;49.252;8.904;2023-11-22T02:13:33;0.82;;;0.80;;
10637;SDS011;47007;49.252;8.904;2023-11-22T02:14:15;1.98;;;1.30;;
10637;SDS011;47007;49.252;8.904;2023-11-22T02:14:57;1.35;;;1.23;;
10637;SDS011;47007;49.252;8.904;2023-11-22T02:15:39;1.60;;;1.33;;
10637;SDS011;47007;49.252;8.904;2023-11-22T02:16:20;0.88;;;0.88;;
10637;SDS011;47007;49.252;8.904;2023-11-22T02:17:03;1.42;;;1.13;;
10637;SDS011;47007;49.252;8.904;2023-11-22T02:17:47;1.23;;;0.93;;
10637;SDS011;47007;49.252;8.904;2023-11-22T02:18:29;1.05;;;0.98;;
10637;SDS011;47007;49.252;8.904;2023-11-22T02:19:13;1.25;;;1.02;;
10637;SDS011;47007;49.252;8.904;2023-11-22T02:19:56;1.00;;;1.00;;
10637;SDS011;47007;49.252;8.904;2023-11-22T02:20:39;1.17;;;0.88;;
10637;SDS011;47007;49.252;8.904;2023-11-22T02:21:21;1.00;;;0.75;;
10637;SDS011;47007;49.252;8.904;2023-11-22T02:22:03;0.70;;;0.70;;
10637;SDS011;47007;49.252;8.904;2023-11-22T02:22:45;1.05;;;0.93;;
10637;SDS011;47007;49.252;8.904;2023-11-22T02:23:27;1.38;;;1.00;;
10637;SDS011;47007;49.252;8.904;2023-11-22T02:24:10;0.88;;;0.82;;
10637;SDS011;47007;49.252;8.904;2023-11-22T02:24:53;1.20;;;1.10;;
10637;SDS011;47007;49.252;8.904;2023-11-22T02:25:35;1.15;;;1.08;;
10637;SDS011;47007;49.252;8.904;2023-11-22T02:26:17;1.05;;;0.95;;
10637;SDS011;47007;49.252;8.904;2023-11-22T02:27:00;1.25;;;1.05;;
10637;SDS011;47007;49.252;8.904;2023-11-22T02:27:42;1.48;;;1.30;;
10637;SDS011;47007;49.252;8.904;2023-11-22T02:28:23;1.75;;;1.35;;
10637;SDS011;47007;49.252;8.904;2023-11-22T02:29:05;1.63;;;1.08;;
10637;SDS011;47007;49.252;8.904;2023-11-22T02:29:48;1.02;;;1.00;;
10637;SDS011;47007;49.252;8.904;2023-11-22T02:30:29;1.05;;;0.95;;
10637;SDS011;47007;49.252;8.904;2023-11-22T02:31:11;1.85;;;1.20;;
10637;SDS011;47007;49.252;8.904;2023-11-22T02:31:54;1.48;;;1.30;;
10637;SDS011;47007;49.252;8.904;2023-11-22T02:32:36;1.35;;;1.25;;
10637;SDS011;47007;49.252;8.904;2023-11-22T02:33:18;2.53;;;1.27;;
10637;SDS011;47007;49.252;8.904;2023-11-22T02:34:00;1.42;;;1.10;;
10637;SDS011;47007;49.252;8.904;2023-11-22T02:34:42;1.08;;;0.95;;
10637;SDS011;47007;49.252;8.904;2023-11-22T02:35:24;1.40;;;1.30;;
10637;SDS011;47007;49.252;8.904;2023-11-22T02:36:05;1.08;;;1.00;;
10637;SDS011;47007;49.252;8.904;2023-11-22T02:36:49;1.52;;;1.10;;
10637;SDS011;47007;49.252;8.904;2023-11-22T02:37:43;1.10;;;1.00;;
10637;SDS011;47007;49.252;8.904;2023-11-22T02:38:27;1.60;;;1.38;;
10637;SDS011;47007;49.252;8.904;2023-11-22T02:39:09;1.00;;;1.00;;
10637;SDS011;47007;49.252;8.904;2023-11-22T02:40:00;2.88;;;1.15;;
10637;SDS011;47007;49.252;8.904;2023-11-22T02:40:46;1.25;;;1.15;;
10637;SDS011;47007;49.252;8.904;2023-11-22T02:41:28;1.35;;;1.17;;
10637;SDS011;47007;49.252;8.904;2023-11-22T02:42:13;1.45;;;1.25;;
10637;SDS011;47007;49.252;8.904;2023-11-22T02:42:55;1.90;;;1.20;;
10637;SDS011;47007;49.252;8.904;2023-11-22T02:43:39;1.88;;;1.17;;
10637;SDS011;47007;49.252;8.904;2023-11-22T02:44:22;1.83;;;1.23;;
10637;SDS011;47007;49.252;8.904;2023-11-22T02:45:05;1.48;;;1.20;;
10637;SDS011;47007;49.252;8.904;2023-11-22T02:45:47;1.50;;;1.25;;
10637;SDS011;47007;49.252;8.904;2023-11-22T02:46:29;2.08;;;0.93;;
10637;SDS011;47007;49.252;8.904;2023-11-22T02:47:12;1.50;;;1.10;;
10637;SDS011;47007;49.252;8.904;2023-11-22T02:47:54;1.50;;;0.93;;
10637;SDS011;47007;49.252;8.904;2023-11-22T02:48:36;1.30;;;1.20;;
10637;SDS011;47007;49.252;8.904;2023-11-22T02:49:18;1.35;;;1.20;;
10637;SDS011;47007;49.252;8.904;2023-11-22T02:50:01;1.10;;;1.00;;
10637;SDS011;47007;49.252;8.904;2023-11-22T02:50:44;1.77;;;1.17;;
10637;SDS011;47007;49.252;8.904;2023-11-22T02:51:26;1.85;;;1.40;;
10637;SDS011;47007;49.252;8.904;2023-11-22T02:52:07;1.45;;;1.10;;
10637;SDS011;47007;49.252;8.904;2023-11-22T02:52:49;1.15;;;0.93;;
10637;SDS011;47007;49.252;8.904;2023-11-22T02:53:31;1.15;;;0.90;;
10637;SDS011;47007;49.252;8.904;2023-11-22T02:54:13;1.17;;;1.08;;
10637;SDS011;47007;49.252;8.904;2023-11-22T02:54:55;1.05;;;1.00;;
10637;SDS011;47007;49.252;8.904;2023-11-22T02:55:37;1.20;;;0.90;;
10637;SDS011;47007;49.252;8.904;2023-11-22T02:56:20;1.15;;;1.05;;
10637;SDS011;47007;49.252;8.904;2023-11-22T02:57:02;1.30;;;0.90;;
10637;SDS011;47007;49.252;8.904;2023-11-22T02:57:44;1.10;;;1.00;;
10637;SDS011;47007;49.252;8.904;2023-11-22T02:58:29;2.58;;;1.20;;
10637;SDS011;47007;49.252;8.904;2023-11-22T02:59:12;1.08;;;1.00;;
10637;SDS011;47007;49.252;8.904;2023-11-22T02:59:55;0.90;;;0.90;;
10637;SDS011;47007;49.252;8.904;2023-11-22T03:00:37;0.90;;;0.85;;
10637;SDS011;47007;49.252;8.904;2023-11-22T03:01:19;0.95;;;0.90;;
10637;SDS011;47007;49.252;8.904;2023-11-22T03:02:01;1.02;;;1.00;;
10637;SDS011;47007;49.252;8.904;2023-11-22T03:02:43;1.17;;;1.08;;
10637;SDS011;47007;49.252;8.904;2023-11-22T03:03:26;1.05;;;0.90;;
10637;SDS011;47007;49.252;8.904;2023-11-22T03:04:09;1.42;;;1.02;;
10637;SDS011;47007;49.252;8.904;2023-11-22T03:04:51;0.70;;;0.70;;
10637;SDS011;47007;49.252;8.904;2023-11-22T03:05:32;0.88;;;0.80;;
10637;SDS011;47007;49.252;8.904;2023-11-22T03:06:15;0.95;;;0.88;;
10637;SDS011;47007;49.252;8.904;2023-11-22T03:06:56;1.00;;;0.90;;
10637;SDS011;47007;49.252;8.904;2023-11-22T03:07:38;0.80;;;0.80;;
10637;SDS011;47007;49.252;8.904;2023-11-22T03:08:20;0.93;;;0.75;;
10637;SDS011;47007;49.252;8.904;2023-11-22T03:09:02;1.30;;;1.10;;
10637;SDS011;47007;49.252;8.904;2023-11-22T03:09:43;1.20;;;1.10;;
10637;SDS011;47007;49.252;8.904;2023-11-22T03:10:27;1.33;;;0.82;;
10637;SDS011;47007;49.252;8.904;2023-11-22T03:11:09;1.10;;;1.00;;
10637;SDS011;47007;49.252;8.904;2023-11-22T03:11:50;1.15;;;1.05;;
10637;SDS011;47007;49.252;8.904;2023-11-22T03:12:33;1.10;;;1.10;;
10637;SDS011;47007;49.252;8.904;2023-11-22T03:13:16;0.90;;;0.90;;
10637;SDS011;47007;49.252;8.904;2023-11-22T03:13:58;1.00;;;0.90;;
10637;SDS011;47007;49.252;8.904;2023-11-22T03:14:40;1.17;;;1.05;;
10637;SDS011;47007;49.252;8.904;2023-11-22T03:15:24;0.88;;;0.88;;
10637;SDS011;47007;49.252;8.904;2023-11-22T03:16:06;1.10;;;1.00;;
10637;SDS011;47007;49.252;8.904;2023-11-22T03:16:50;1.30;;;1.20;;
10637;SDS011;47007;49.252;8.904;2023-11-22T03:17:31;1.10;;;1.00;;
10637;SDS011;47007;49.252;8.904;2023-11-22T03:18:14;0.80;;;0.80;;
10637;SDS011;47007;49.252;8.904;2023-11-22T03:18:58;0.90;;;0.90;;
10637;SDS011;47007;49.252;8.904;2023-11-22T03:19:39;1.02;;;0.80;;
10637;SDS011;47007;49.252;8.904;2023-11-22T03:20:21;1.40;;;1.20;;
10637;SDS011;47007;49.252;8.904;2023-11-22T03:21:03;0.90;;;0.90;;
10637;SDS011;47007;49.252;8.904;2023-11-22T03:21:46;0.80;;;0.80;;
10637;SDS011;47007;49.252;8.904;2023-11-22T03:22:28;1.17;;;1.10;;
10637;SDS011;47007;49.252;8.904;2023-11-22T03:23:15;1.25;;;1.17;;
10637;SDS011;47007;49.252;8.904;2023-11-22T03:23:58;2.63;;;1.10;;
10637;SDS011;47007;49.252;8.904;2023-11-22T03:24:41;1.73;;;1.00;;
10637;SDS011;47007;49.252;8.904;2023-11-22T03:25:23;1.00;;;1.00;;
10637;SDS011;47007;49.252;8.904;2023-11-22T03:26:05;1.70;;;1.00;;
10637;SDS011;47007;49.252;8.904;2023-11-22T03:26:48;1.23;;;0.90;;
10637;SDS011;47007;49.252;8.904;2023-11-22T03:27:30;1.75;;;1.20;;
10637;SDS011;47007;49.252;8.904;2023-11-22T03:28:12;1.00;;;0.93;;
10637;SDS011;47007;49.252;8.904;2023-11-22T03:28:54;1.05;;;1.02;;
10637;SDS011;47007;49.252;8.904;2023-11-22T03:29:37;0.93;;;0.93;;
10637;SDS011;47007;49.252;8.904;2023-11-22T03:30:19;1.60;;;1.50;;
10637;SDS011;47007;49.252;8.904;2023-11-22T03:31:03;1.23;;;1.15;;
10637;SDS011;47007;49.252;8.904;2023-11-22T03:31:46;0.90;;;0.82;;
10637;SDS011;47007;49.252;8.904;2023-11-22T03:32:28;1.20;;;1.10;;
10637;SDS011;47007;49.252;8.904;2023-11-22T03:33:11;1.30;;;1.20;;
10637;SDS011;47007;49.252;8.904;2023-11-22T03:33:53;0.90;;;0.90;;
10637;SDS011;47007;49.252;8.904;2023-11-22T03:34:36;1.20;;;1.10;;
10637;SDS011;47007;49.252;8.904;2023-11-22T03:35:18;1.08;;;0.98;;
10637;SDS011;47007;49.252;8.904;2023-11-22T03:35:59;1.33;;;1.00;;
10637;SDS011;47007;49.252;8.904;2023-11-22T03:36:41;0.93;;;0.93;;
10637;SDS011;47007;49.252;8.904;2023-11-22T03:37:23;1.10;;;1.00;;
10637;SDS011;47007;49.252;8.904;2023-11-22T03:38:05;1.00;;;1.00;;
10637;SDS011;47007;49.252;8.904;2023-11-22T03:38:47;1.73;;;1.00;;
10637;SDS011;47007;49.252;8.904;2023-11-22T03:39:29;1.20;;;1.10;;
10637;SDS011;47007;49.252;8.904;2023-11-22T03:40:11;0.85;;;0.85;;
10637;SDS011;47007;49.252;8.904;2023-11-22T03:40:55;1.30;;;1.10;;
10637;SDS011;47007;49.252;8.904;2023-11-22T03:41:37;1.65;;;0.90;;
10637;SDS011;47007;49.252;8.904;2023-11-22T03:42:19;1.17;;;1.17;;
10637;SDS011;47007;49.252;8.904;2023-11-22T03:43:01;1.25;;;1.10;;
10637;SDS011;47007;49.252;8.904;2023-11-22T03:43:43;1.30;;;0.98;;
10637;SDS011;47007;49.252;8.904;2023-11-22T03:44:25;1.02;;;1.02;;
10637;SDS011;47007;49.252;8.904;2023-11-22T03:45:06;1.10;;;1.00;;
10637;SDS011;47007;49.252;8.904;2023-11-22T03:45:48;1.05;;;0.95;;
10637;SDS011;47007;49.252;8.904;2023-11-22T03:46:30;0.98;;;0.98;;
10637;SDS011;47007;49.252;8.904;2023-11-22T03:47:14;1.77;;;1.15;;
10637;SDS011;47007;49.252;8.904;2023-11-22T03:47:57;2.30;;;1.10;;
10637;SDS011;47007;49.252;8.904;2023-11-22T03:48:40;1.00;;;1.00;;
10637;SDS011;47007;49.252;8.904;2023-11-22T03:49:22;1.48;;;1.38;;
10637;SDS011;47007;49.252;8.904;2023-11-22T03:50:05;1.00;;;1.00;;
10637;SDS011;47007;49.252;8.904;2023-11-22T03:50:47;1.40;;;1.20;;
10637;SDS011;47007;49.252;8.904;2023-11-22T03:51:29;2.05;;;1.30;;
10637;SDS011;47007;49.252;8.904;2023-11-22T03:52:12;1.30;;;1.20;;
10637;SDS011;47007;49.252;8.904;2023-11-22T03:52:54;1.48;;;1.27;;
10637;SDS011;47007;49.252;8.904;2023-11-22T03:53:35;3.10;;;1.20;;
10637;SDS011;47007;49.252;8.904;2023-11-22T03:54:17;1.13;;;1.02;;
10637;SDS011;47007;49.252;8.904;2023-11-22T03:55:00;1.20;;;1.10;;
10637;SDS011;47007;49.252;8.904;2023-11-22T03:55:41;1.05;;;1.05;;
10637;SDS011;47007;49.252;8.904;2023-11-22T03:56:23;2.92;;;1.40;;
10637;SDS011;47007;49.252;8.904;2023-11-22T03:57:05;1.20;;;1.20;;
10637;SDS011;47007;49.252;8.904;2023-11-22T03:57:47;1.45;;;1.40;;
10637;SDS011;47007;49.252;8.904;2023-11-22T03:58:29;1.48;;;1.38;;
10637;SDS011;47007;49.252;8.904;2023-11-22T03:59:11;1.10;;;1.10;;
10637;SDS011;47007;49.252;8.904;2023-11-22T03:59:53;1.10;;;1.00;;
10637;SDS011;47007;49.252;8.904;2023-11-22T04:00:35;2.00;;;1.90;;
10637;SDS011;47007;49.252;8.904;2023-11-22T04:01:17;1.58;;;1.48;;
10637;SDS011;47007;49.252;8.904;2023-11-22T04:02:00;1.48;;;1.38;;
10637;SDS011;47007;49.252;8.904;2023-11-22T04:02:42;1.95;;;1.85;;
10637;SDS011;47007;49.252;8.904;2023-11-22T04:03:25;1.23;;;1.00;;
10637;SDS011;47007;49.252;8.904;2023-11-22T04:04:07;0.93;;;0.93;;
10637;SDS011;47007;49.252;8.904;2023-11-22T04:04:51;1.05;;;0.95;;
10637;SDS011;47007;49.252;8.904;2023-11-22T04:05:33;2.25;;;1.23;;
10637;SDS011;47007;49.252;8.904;2023-11-22T04:06:15;2.88;;;1.25;;
10637;SDS011;47007;49.252;8.904;2023-11-22T04:06:58;2.17;;;1.10;;
10637;SDS011;47007;49.252;8.904;2023-11-22T04:07:40;1.45;;;1.35;;
10637;SDS011;47007;49.252;8.904;2023-11-22T04:08:21;0.98;;;0.98;;
10637;SDS011;47007;49.252;8.904;2023-11-22T04:09:03;1.15;;;1.00;;
10637;SDS011;47007;49.252;8.904;2023-11-22T04:09:45;1.75;;;1.58;;
10637;SDS011;47007;49.252;8.904;2023-11-22T04:10:27;1.30;;;1.20;;
10637;SDS011;47007;49.252;8.904;2023-11-22T04:11:08;1.60;;;1.50;;
10637;SDS011;47007;49.252;8.904;2023-11-22T04:11:50;1.05;;;1.02;;
10637;SDS011;47007;49.252;8.904;2023-11-22T04:12:32;1.67;;;1.17;;
10637;SDS011;47007;49.252;8.904;2023-11-22T04:13:17;3.25;;;1.42;;
10637;SDS011;47007;49.252;8.904;2023-11-22T04:13:58;1.40;;;1.30;;
10637;SDS011;47007;49.252;8.904;2023-11-22T04:14:41;1.10;;;1.08;;
10637;SDS011;47007;49.252;8.904;2023-11-22T04:15:23;1.35;;;1.20;;
10637;SDS011;47007;49.252;8.904;2023-11-22T04:16:08;1.00;;;1.00;;